createdAt,value
2022-10-17T00:08:30.510Z,20.77
2022-10-17T00:18:32.478Z,21.23
2022-10-17T00:28:35.193Z,22.77
2022-10-17T00:38:37.163Z,22.57
2022-10-17T00:48:40.080Z,21.15
2022-10-17T00:58:41.782Z,22.47
2022-10-17T01:08:44.801Z,21.17
2022-10-17T01:18:56.822Z,22.13
2022-10-17T01:29:16.500Z,21.80
2022-10-17T01:39:28.112Z,22.73
2022-10-17T01:49:33.595Z,22.27
2022-10-17T02:09:46.161Z,21.42
2022-10-17T02:20:12.734Z,20.85
2022-10-17T02:30:17.241Z,23.05
2022-10-17T02:40:24.314Z,22.88
2022-10-17T02:50:43.478Z,22.35
2022-10-17T03:00:49.086Z,22.88
2022-10-17T03:10:51.373Z,23.15
2022-10-17T03:20:53.017Z,23.08
2022-10-17T03:30:54.553Z,23.20
2022-10-17T03:40:58.534Z,22.30
2022-10-17T03:51:01.824Z,23.77
2022-10-17T04:01:09.235Z,23.88
2022-10-17T04:11:15.852Z,23.00
2022-10-17T04:21:18.373Z,23.42
2022-10-17T04:31:20.163Z,27.60
2022-10-17T04:41:21.712Z,24.27
2022-10-17T04:51:26.609Z,25.77
2022-10-17T05:01:28.650Z,24.27
2022-10-17T05:11:32.567Z,25.20
2022-10-17T05:21:43.448Z,26.15
2022-10-17T05:31:52.421Z,25.55
2022-10-17T05:41:54.035Z,24.13
2022-10-17T05:52:03.252Z,27.23
2022-10-17T06:02:04.970Z,25.25
2022-10-17T06:12:07.336Z,24.48
2022-10-17T06:22:08.915Z,22.70
2022-10-17T06:32:14.908Z,20.40
2022-10-17T06:42:23.145Z,21.33
2022-10-17T06:52:24.865Z,19.40
2022-10-17T07:02:26.860Z,17.35
2022-10-17T07:12:52.349Z,18.23
2022-10-17T07:23:03.614Z,17.75
2022-10-17T07:33:08.349Z,18.75
2022-10-17T07:43:09.986Z,16.23
2022-10-17T07:53:11.585Z,14.95
2022-10-17T08:03:14.677Z,14.35
2022-10-17T08:13:16.578Z,14.68
2022-10-17T08:23:22.132Z,14.48
2022-10-17T08:33:25.209Z,11.70
2022-10-17T08:43:51.522Z,12.80
2022-10-17T08:54:01.929Z,12.43
2022-10-17T09:04:37.961Z,12.30
2022-10-17T09:14:57.505Z,7.80
2022-10-17T09:25:07.326Z,6.80
2022-10-17T09:35:15.152Z,7.35
2022-10-17T09:45:25.021Z,6.05
2022-10-17T09:55:37.635Z,5.88
2022-10-17T10:05:40.683Z,6.15
2022-10-17T10:15:46.440Z,5.38
2022-10-17T10:25:55.875Z,5.25
2022-10-17T10:36:03.495Z,5.85
2022-10-17T10:46:18.375Z,4.65
2022-10-17T10:56:28.550Z,4.80
2022-10-17T11:06:38.729Z,4.95
2022-10-17T11:16:52.702Z,4.90
2022-10-17T11:27:00.058Z,5.35
2022-10-17T11:37:16.416Z,4.60
2022-10-17T11:47:40.841Z,5.10
2022-10-17T11:57:53.930Z,4.38
2022-10-17T12:08:30.588Z,4.82
2022-10-17T12:18:33.231Z,4.60
2022-10-17T12:28:38.076Z,4.55
2022-10-17T12:38:40.322Z,4.00
2022-10-17T12:48:43.179Z,4.30
2022-10-17T12:58:50.281Z,3.95
2022-10-17T13:09:03.477Z,4.30
2022-10-17T13:19:20.083Z,4.43
2022-10-17T13:29:23.749Z,3.72
2022-10-17T13:39:45.297Z,3.67
2022-10-17T13:49:55.430Z,3.65
2022-10-17T13:59:59.787Z,3.70
2022-10-17T14:10:07.286Z,3.35
2022-10-17T14:31:01.421Z,3.42
2022-10-17T14:41:40.808Z,3.80
2022-10-17T14:51:44.656Z,4.25
2022-10-17T15:01:55.366Z,4.13
2022-10-17T15:12:02.547Z,4.00
2022-10-17T15:22:04.110Z,4.30
2022-10-17T15:32:05.912Z,4.35
2022-10-17T15:42:12.122Z,4.43
2022-10-17T15:52:18.143Z,5.88
2022-10-17T16:02:21.946Z,6.78
2022-10-17T16:12:30.095Z,6.00
2022-10-17T16:22:36.645Z,5.10
2022-10-17T16:32:39.298Z,6.20
2022-10-17T16:42:41.713Z,5.85
2022-10-17T16:52:43.912Z,6.40
2022-10-17T17:02:48.175Z,6.78
2022-10-17T17:12:50.880Z,6.65
2022-10-17T17:22:53.203Z,8.82
2022-10-17T17:33:03.151Z,8.90
2022-10-17T17:43:05.213Z,8.40
2022-10-17T17:53:09.020Z,8.87
2022-10-17T18:03:17.381Z,10.18
2022-10-17T18:13:22.476Z,10.23
2022-10-17T18:23:24.699Z,11.63
2022-10-17T18:33:26.722Z,12.10
2022-10-17T18:43:29.941Z,15.27
2022-10-17T18:53:32.742Z,13.15
2022-10-17T19:03:34.679Z,14.00
2022-10-17T19:13:38.472Z,15.95
2022-10-17T19:23:56.933Z,16.05
2022-10-17T19:33:59.583Z,17.90
2022-10-17T19:44:02.139Z,17.87
2022-10-17T19:54:11.344Z,18.20
2022-10-17T20:04:16.201Z,18.75
2022-10-17T20:14:24.469Z,20.55
2022-10-17T20:24:28.226Z,19.98
2022-10-17T20:34:35.844Z,19.25
2022-10-17T20:44:46.106Z,20.42
2022-10-17T20:54:48.632Z,19.83
2022-10-17T21:04:53.471Z,20.87
2022-10-17T21:15:18.387Z,20.88
2022-10-17T21:46:58.810Z,22.02
2022-10-17T21:57:00.433Z,21.83
2022-10-17T22:07:02.035Z,23.63
2022-10-17T22:17:08.697Z,23.10
2022-10-17T22:27:10.517Z,22.83
2022-10-17T22:37:12.198Z,23.08
2022-10-17T22:47:14.068Z,25.70
2022-10-17T22:57:15.669Z,24.02
2022-10-17T23:07:17.232Z,24.48
2022-10-17T23:17:18.830Z,25.15
2022-10-17T23:27:23.450Z,24.80
2022-10-17T23:37:27.194Z,25.10
2022-10-17T23:47:31.373Z,25.40
2022-10-17T23:57:33.956Z,24.17
